sensor_id;sensor_type;location;lat;lon;timestamp;pressure;altitude;pressure_sealevel;temperature;humidity
67740;BME280;54536;50.090;14.420;2023-04-07T00:01:39;99655.09;;;7.18;43.89
67740;BME280;54536;50.090;14.420;2023-04-07T00:04:05;99655.41;;;7.13;44.35
67740;BME280;54536;50.090;14.420;2023-04-07T00:06:32;99657.31;;;6.98;44.64
67740;BME280;54536;50.090;14.420;2023-04-07T00:08:58;99649.13;;;7.16;44.18
67740;BME280;54536;50.090;14.420;2023-04-07T00:11:24;99651.22;;;7.23;44.55
67740;BME280;54536;50.090;14.420;2023-04-07T00:13:50;99656.78;;;7.06;44.72
67740;BME280;54536;50.090;14.420;2023-04-07T00:16:16;99653.56;;;6.90;45.05
67740;BME280;54536;50.090;14.420;2023-04-07T00:18:42;99653.47;;;6.91;45.43
67740;BME280;54536;50.090;14.420;2023-04-07T00:21:08;99655.44;;;7.00;44.82
67740;BME280;54536;50.090;14.420;2023-04-07T00:23:34;99646.03;;;6.85;44.88
67740;BME280;54536;50.090;14.420;2023-04-07T00:26:00;99653.63;;;7.14;44.60
67740;BME280;54536;50.090;14.420;2023-04-07T00:28:27;99642.41;;;7.24;43.81
67740;BME280;54536;50.090;14.420;2023-04-07T00:30:52;99647.81;;;7.34;44.22
67740;BME280;54536;50.090;14.420;2023-04-07T00:33:19;99646.31;;;7.06;44.72
67740;BME280;54536;50.090;14.420;2023-04-07T00:35:45;99641.63;;;7.35;43.88
67740;BME280;54536;50.090;14.420;2023-04-07T00:38:11;99644.56;;;7.43;43.91
67740;BME280;54536;50.090;14.420;2023-04-07T00:40:37;99641.09;;;7.06;45.05
67740;BME280;54536;50.090;14.420;2023-04-07T00:43:04;99643.38;;;7.11;44.44
67740;BME280;54536;50.090;14.420;2023-04-07T00:45:30;99631.59;;;6.92;44.96
67740;BME280;54536;50.090;14.420;2023-04-07T00:47:57;99629.06;;;7.16;43.79
67740;BME280;54536;50.090;14.420;2023-04-07T00:50:23;99630.88;;;7.03;44.46
67740;BME280;54536;50.090;14.420;2023-04-07T00:52:50;99627.59;;;6.99;44.13
67740;BME280;54536;50.090;14.420;2023-04-07T00:55:16;99625.38;;;7.19;43.51
67740;BME280;54536;50.090;14.420;2023-04-07T00:57:42;99625.63;;;7.03;43.80
67740;BME280;54536;50.090;14.420;2023-04-07T01:00:08;99621.34;;;7.02;44.05
67740;BME280;54536;50.090;14.420;2023-04-07T01:02:43;99624.53;;;7.18;43.71
67740;BME280;54536;50.090;14.420;2023-04-07T01:05:22;99620.13;;;7.19;44.51
67740;BME280;54536;50.090;14.420;2023-04-07T01:08:03;99613.72;;;6.86;44.85
67740;BME280;54536;50.090;14.420;2023-04-07T01:10:51;99609.66;;;6.82;44.82
67740;BME280;54536;50.090;14.420;2023-04-07T01:13:29;99609.06;;;6.66;45.52
67740;BME280;54536;50.090;14.420;2023-04-07T01:16:00;99611.78;;;6.64;44.87
67740;BME280;54536;50.090;14.420;2023-04-07T01:18:36;99619.72;;;6.50;45.78
67740;BME280;54536;50.090;14.420;2023-04-07T01:21:13;99614.41;;;6.77;45.56
67740;BME280;54536;50.090;14.420;2023-04-07T01:24:04;99611.91;;;6.99;45.40
67740;BME280;54536;50.090;14.420;2023-04-07T01:26:38;99615.47;;;6.98;44.58
67740;BME280;54536;50.090;14.420;2023-04-07T01:29:32;99611.63;;;7.04;44.79
67740;BME280;54536;50.090;14.420;2023-04-07T01:32:01;99607.03;;;6.82;45.52
67740;BME280;54536;50.090;14.420;2023-04-07T01:34:30;99605.50;;;6.67;45.48
67740;BME280;54536;50.090;14.420;2023-04-07T01:37:00;99600.31;;;6.54;45.67
67740;BME280;54536;50.090;14.420;2023-04-07T01:39:27;99599.34;;;6.55;46.05
67740;BME280;54536;50.090;14.420;2023-04-07T01:41:55;99593.81;;;6.34;46.73
67740;BME280;54536;50.090;14.420;2023-04-07T01:44:24;99604.78;;;6.26;46.51
67740;BME280;54536;50.090;14.420;2023-04-07T01:46:52;99601.22;;;6.15;46.43
67740;BME280;54536;50.090;14.420;2023-04-07T01:49:19;99604.69;;;6.28;46.29
67740;BME280;54536;50.090;14.420;2023-04-07T01:51:48;99600.59;;;6.37;45.99
67740;BME280;54536;50.090;14.420;2023-04-07T01:54:16;99598.09;;;6.22;47.00
67740;BME280;54536;50.090;14.420;2023-04-07T01:56:43;99599.78;;;6.49;45.93
67740;BME280;54536;50.090;14.420;2023-04-07T01:59:10;99598.72;;;6.51;45.83
67740;BME280;54536;50.090;14.420;2023-04-07T02:01:37;99593.94;;;6.32;46.40
67740;BME280;54536;50.090;14.420;2023-04-07T02:04:25;99587.03;;;6.44;46.24
67740;BME280;54536;50.090;14.420;2023-04-07T02:07:05;99589.41;;;6.60;45.84
67740;BME280;54536;50.090;14.420;2023-04-07T02:09:37;99581.16;;;6.66;46.10
67740;BME280;54536;50.090;14.420;2023-04-07T02:12:08;99582.44;;;6.48;46.74
67740;BME280;54536;50.090;14.420;2023-04-07T02:14:37;99583.56;;;6.56;46.43
67740;BME280;54536;50.090;14.420;2023-04-07T02:17:05;99585.75;;;6.50;46.08
67740;BME280;54536;50.090;14.420;2023-04-07T02:19:32;99585.53;;;6.66;46.22
67740;BME280;54536;50.090;14.420;2023-04-07T02:22:04;99582.72;;;6.69;45.83
67740;BME280;54536;50.090;14.420;2023-04-07T02:24:31;99580.03;;;6.57;46.09
67740;BME280;54536;50.090;14.420;2023-04-07T02:26:57;99581.75;;;6.70;45.67
67740;BME280;54536;50.090;14.420;2023-04-07T02:29:25;99573.72;;;6.73;45.73
67740;BME280;54536;50.090;14.420;2023-04-07T02:31:52;99582.63;;;6.57;45.85
67740;BME280;54536;50.090;14.420;2023-04-07T02:34:17;99576.66;;;6.55;45.91
67740;BME280;54536;50.090;14.420;2023-04-07T02:36:44;99571.78;;;6.38;46.22
67740;BME280;54536;50.090;14.420;2023-04-07T02:39:10;99574.38;;;6.13;47.30
67740;BME280;54536;50.090;14.420;2023-04-07T02:41:36;99570.00;;;6.13;47.02
67740;BME280;54536;50.090;14.420;2023-04-07T02:44:02;99563.94;;;6.00;47.43
67740;BME280;54536;50.090;14.420;2023-04-07T02:46:28;99570.88;;;5.86;47.47
67740;BME280;54536;50.090;14.420;2023-04-07T02:48:54;99571.34;;;6.06;47.00
67740;BME280;54536;50.090;14.420;2023-04-07T02:51:22;99563.53;;;6.06;46.92
67740;BME280;54536;50.090;14.420;2023-04-07T02:53:47;99574.06;;;6.04;46.69
67740;BME280;54536;50.090;14.420;2023-04-07T02:56:14;99572.31;;;6.05;46.74
67740;BME280;54536;50.090;14.420;2023-04-07T02:58:40;99570.81;;;6.01;47.15
67740;BME280;54536;50.090;14.420;2023-04-07T03:01:07;99569.94;;;5.87;47.73
67740;BME280;54536;50.090;14.420;2023-04-07T03:03:33;99567.78;;;5.94;47.49
67740;BME280;54536;50.090;14.420;2023-04-07T03:05:59;99559.66;;;6.24;46.89
67740;BME280;54536;50.090;14.420;2023-04-07T03:08:25;99560.06;;;6.31;46.63
67740;BME280;54536;50.090;14.420;2023-04-07T03:10:52;99568.44;;;6.10;47.01
67740;BME280;54536;50.090;14.420;2023-04-07T03:13:19;99562.06;;;6.02;47.49
67740;BME280;54536;50.090;14.420;2023-04-07T03:15:46;99563.09;;;5.99;47.51
67740;BME280;54536;50.090;14.420;2023-04-07T03:18:12;99557.06;;;6.12;47.40
67740;BME280;54536;50.090;14.420;2023-04-07T03:20:38;99561.66;;;5.95;47.39
67740;BME280;54536;50.090;14.420;2023-04-07T03:23:07;99558.09;;;5.96;47.04
67740;BME280;54536;50.090;14.420;2023-04-07T03:25:33;99553.25;;;5.90;47.23
67740;BME280;54536;50.090;14.420;2023-04-07T03:27:59;99553.28;;;6.03;47.18
67740;BME280;54536;50.090;14.420;2023-04-07T03:30:25;99549.94;;;6.01;47.57
67740;BME280;54536;50.090;14.420;2023-04-07T03:32:52;99547.66;;;5.96;47.61
67740;BME280;54536;50.090;14.420;2023-04-07T03:35:18;99546.44;;;5.87;47.68
67740;BME280;54536;50.090;14.420;2023-04-07T03:37:44;99549.31;;;5.97;47.53
67740;BME280;54536;50.090;14.420;2023-04-07T03:40:10;99548.50;;;6.09;46.82
67740;BME280;54536;50.090;14.420;2023-04-07T03:42:36;99555.97;;;5.89;47.54
67740;BME280;54536;50.090;14.420;2023-04-07T03:45:03;99545.75;;;5.98;47.74
67740;BME280;54536;50.090;14.420;2023-04-07T03:47:29;99552.00;;;5.83;47.58
67740;BME280;54536;50.090;14.420;2023-04-07T03:49:55;99542.22;;;5.99;47.65
67740;BME280;54536;50.090;14.420;2023-04-07T03:52:20;99542.09;;;6.01;47.59
67740;BME280;54536;50.090;14.420;2023-04-07T03:54:47;99544.59;;;5.90;47.70
67740;BME280;54536;50.090;14.420;2023-04-07T03:57:13;99540.75;;;6.08;47.20
67740;BME280;54536;50.090;14.420;2023-04-07T03:59:39;99541.91;;;6.04;47.54
67740;BME280;54536;50.090;14.420;2023-04-07T04:02:04;99542.66;;;6.31;47.15
67740;BME280;54536;50.090;14.420;2023-04-07T04:04:31;99546.84;;;6.21;47.14
67740;BME280;54536;50.090;14.420;2023-04-07T04:06:56;99540.34;;;6.27;46.81
67740;BME280;54536;50.090;14.420;2023-04-07T04:09:23;99543.69;;;6.03;47.21
67740;BME280;54536;50.090;14.420;2023-04-07T04:11:48;99545.66;;;6.00;47.81
67740;BME280;54536;50.090;14.420;2023-04-07T04:14:15;99542.72;;;6.17;47.28
67740;BME280;54536;50.090;14.420;2023-04-07T04:16:42;99541.50;;;6.23;47.12
67740;BME280;54536;50.090;14.420;2023-04-07T04:19:08;99542.22;;;6.12;47.72
67740;BME280;54536;50.090;14.420;2023-04-07T04:21:34;99541.16;;;6.15;47.54
67740;BME280;54536;50.090;14.420;2023-04-07T04:24:00;99544.84;;;6.25;48.01
67740;BME280;54536;50.090;14.420;2023-04-07T04:26:26;99544.44;;;6.18;47.98
67740;BME280;54536;50.090;14.420;2023-04-07T04:28:54;99550.34;;;6.07;47.23
67740;BME280;54536;50.090;14.420;2023-04-07T04:31:20;99547.53;;;5.98;47.71
67740;BME280;54536;50.090;14.420;2023-04-07T04:33:46;99552.88;;;6.09;47.28
67740;BME280;54536;50.090;14.420;2023-04-07T04:36:12;99550.34;;;5.95;47.30
67740;BME280;54536;50.090;14.420;2023-04-07T04:38:38;99548.94;;;5.76;48.40
67740;BME280;54536;50.090;14.420;2023-04-07T04:41:04;99547.28;;;5.88;47.72
67740;BME280;54536;50.090;14.420;2023-04-07T04:43:30;99552.25;;;5.66;48.43
67740;BME280;54536;50.090;14.420;2023-04-07T04:45:58;99554.59;;;5.83;48.29
67740;BME280;54536;50.090;14.420;2023-04-07T04:48:24;99551.09;;;5.97;47.97
67740;BME280;54536;50.090;14.420;2023-04-07T04:50:50;99547.75;;;6.07;47.21
67740;BME280;54536;50.090;14.420;2023-04-07T04:53:16;99544.59;;;5.90;47.83
67740;BME280;54536;50.090;14.420;2023-04-07T04:55:42;99544.09;;;5.97;47.51
67740;BME280;54536;50.090;14.420;2023-04-07T04:58:18;99549.84;;;6.15;47.33
67740;BME280;54536;50.090;14.420;2023-04-07T05:00:44;99545.88;;;6.22;47.11
67740;BME280;54536;50.090;14.420;2023-04-07T05:03:10;99549.09;;;6.00;47.19
67740;BME280;54536;50.090;14.420;2023-04-07T05:05:36;99549.31;;;6.23;47.54
67740;BME280;54536;50.090;14.420;2023-04-07T05:08:02;99553.72;;;6.09;47.58
67740;BME280;54536;50.090;14.420;2023-04-07T05:10:28;99556.00;;;6.01;47.56
67740;BME280;54536;50.090;14.420;2023-04-07T05:12:54;99556.66;;;6.05;47.64
67740;BME280;54536;50.090;14.420;2023-04-07T05:15:20;99550.69;;;6.16;47.29
67740;BME280;54536;50.090;14.420;2023-04-07T05:17:46;99550.75;;;6.01;47.33
67740;BME280;54536;50.090;14.420;2023-04-07T05:20:15;99549.59;;;5.80;48.03
67740;BME280;54536;50.090;14.420;2023-04-07T05:22:42;99549.44;;;5.96;48.67
67740;BME280;54536;50.090;14.420;2023-04-07T05:25:08;99544.31;;;6.20;47.80
67740;BME280;54536;50.090;14.420;2023-04-07T05:27:34;99548.28;;;6.00;48.82
67740;BME280;54536;50.090;14.420;2023-04-07T05:30:00;99540.53;;;6.24;47.86
67740;BME280;54536;50.090;14.420;2023-04-07T05:32:27;99544.72;;;6.39;47.89
67740;BME280;54536;50.090;14.420;2023-04-07T05:34:53;99549.09;;;6.00;47.87
67740;BME280;54536;50.090;14.420;2023-04-07T05:37:19;99539.22;;;6.18;48.13
67740;BME280;54536;50.090;14.420;2023-04-07T05:39:45;99540.03;;;6.06;47.89
67740;BME280;54536;50.090;14.420;2023-04-07T05:42:11;99542.31;;;6.23;47.81
67740;BME280;54536;50.090;14.420;2023-04-07T05:44:37;99542.53;;;6.07;48.13
67740;BME280;54536;50.090;14.420;2023-04-07T05:47:03;99536.06;;;6.26;47.48
67740;BME280;54536;50.090;14.420;2023-04-07T05:49:35;99534.59;;;6.35;46.63
67740;BME280;54536;50.090;14.420;2023-04-07T05:52:02;99534.34;;;6.50;46.88
67740;BME280;54536;50.090;14.420;2023-04-07T05:54:30;99530.81;;;6.51;46.49
67740;BME280;54536;50.090;14.420;2023-04-07T05:57:02;99537.28;;;6.59;46.59
67740;BME280;54536;50.090;14.420;2023-04-07T05:59:28;99537.16;;;6.47;47.18
67740;BME280;54536;50.090;14.420;2023-04-07T06:02:04;99534.16;;;6.41;47.15
67740;BME280;54536;50.090;14.420;2023-04-07T06:04:32;99538.50;;;6.66;46.56
67740;BME280;54536;50.090;14.420;2023-04-07T06:07:01;99544.50;;;6.55;46.88
67740;BME280;54536;50.090;14.420;2023-04-07T06:09:26;99541.13;;;6.53;46.53
67740;BME280;54536;50.090;14.420;2023-04-07T06:11:52;99542.47;;;6.71;46.38
67740;BME280;54536;50.090;14.420;2023-04-07T06:14:19;99535.63;;;6.57;46.72
67740;BME280;54536;50.090;14.420;2023-04-07T06:16:46;99538.06;;;6.72;46.30
67740;BME280;54536;50.090;14.420;2023-04-07T06:19:12;99539.94;;;6.83;46.13
67740;BME280;54536;50.090;14.420;2023-04-07T06:21:39;99539.72;;;6.86;46.57
67740;BME280;54536;50.090;14.420;2023-04-07T06:24:06;99538.41;;;6.67;46.50
67740;BME280;54536;50.090;14.420;2023-04-07T06:26:33;99536.47;;;6.82;46.44
67740;BME280;54536;50.090;14.420;2023-04-07T06:29:01;99531.09;;;6.96;46.23
67740;BME280;54536;50.090;14.420;2023-04-07T06:31:28;99531.19;;;7.08;45.90
67740;BME280;54536;50.090;14.420;2023-04-07T06:33:53;99536.84;;;7.01;47.34
67740;BME280;54536;50.090;14.420;2023-04-07T06:36:20;99537.84;;;7.12;46.13
67740;BME280;54536;50.090;14.420;2023-04-07T06:38:46;99532.09;;;7.19;46.34
67740;BME280;54536;50.090;14.420;2023-04-07T06:41:12;99536.75;;;7.27;45.80
67740;BME280;54536;50.090;14.420;2023-04-07T06:43:49;99539.44;;;7.25;46.20
67740;BME280;54536;50.090;14.420;2023-04-07T06:46:18;99531.09;;;7.44;45.08
67740;BME280;54536;50.090;14.420;2023-04-07T06:48:45;99530.44;;;7.54;45.39
67740;BME280;54536;50.090;14.420;2023-04-07T06:51:11;99531.63;;;7.49;45.00
67740;BME280;54536;50.090;14.420;2023-04-07T06:53:37;99531.06;;;7.33;46.02
67740;BME280;54536;50.090;14.420;2023-04-07T06:56:08;99530.16;;;7.45;45.41
67740;BME280;54536;50.090;14.420;2023-04-07T06:58:35;99531.53;;;7.62;45.18
67740;BME280;54536;50.090;14.420;2023-04-07T07:01:03;99525.84;;;7.68;45.70
67740;BME280;54536;50.090;14.420;2023-04-07T07:03:30;99528.47;;;7.68;45.22
67740;BME280;54536;50.090;14.420;2023-04-07T07:05:58;99524.44;;;7.76;44.94
67740;BME280;54536;50.090;14.420;2023-04-07T07:08:26;99523.75;;;7.96;44.52
67740;BME280;54536;50.090;14.420;2023-04-07T07:10:54;99519.84;;;8.02;44.03
67740;BME280;54536;50.090;14.420;2023-04-07T07:13:27;99519.38;;;8.08;44.56
67740;BME280;54536;50.090;14.420;2023-04-07T07:15:54;99516.16;;;8.15;44.37
67740;BME280;54536;50.090;14.420;2023-04-07T07:18:20;99520.09;;;8.10;44.28
67740;BME280;54536;50.090;14.420;2023-04-07T07:20:47;99520.09;;;8.21;43.80
67740;BME280;54536;50.090;14.420;2023-04-07T07:23:13;99523.84;;;8.41;43.04
67740;BME280;54536;50.090;14.420;2023-04-07T07:25:40;99518.72;;;8.51;42.88
67740;BME280;54536;50.090;14.420;2023-04-07T07:28:06;99525.63;;;8.52;42.74
67740;BME280;54536;50.090;14.420;2023-04-07T07:30:34;99526.56;;;8.62;42.23
67740;BME280;54536;50.090;14.420;2023-04-07T07:33:01;99521.31;;;8.62;41.81
67740;BME280;54536;50.090;14.420;2023-04-07T07:35:28;99525.59;;;8.74;41.54
67740;BME280;54536;50.090;14.420;2023-04-07T07:37:55;99522.59;;;8.79;41.31
67740;BME280;54536;50.090;14.420;2023-04-07T07:40:21;99516.53;;;8.78;41.88
67740;BME280;54536;50.090;14.420;2023-04-07T07:42:47;99524.84;;;8.95;41.65
67740;BME280;54536;50.090;14.420;2023-04-07T07:45:13;99526.84;;;9.02;41.72
67740;BME280;54536;50.090;14.420;2023-04-07T07:47:40;99532.69;;;9.06;41.32
67740;BME280;54536;50.090;14.420;2023-04-07T07:50:07;99528.22;;;9.29;41.36
67740;BME280;54536;50.090;14.420;2023-04-07T07:52:34;99526.75;;;9.36;41.31
67740;BME280;54536;50.090;14.420;2023-04-07T07:55:01;99531.25;;;9.45;41.19
67740;BME280;54536;50.090;14.420;2023-04-07T07:57:28;99526.84;;;9.46;41.78
67740;BME280;54536;50.090;14.420;2023-04-07T07:59:56;99521.53;;;9.57;41.43
67740;BME280;54536;50.090;14.420;2023-04-07T08:02:22;99524.22;;;9.67;40.63
67740;BME280;54536;50.090;14.420;2023-04-07T08:04:54;99526.09;;;9.76;39.96
67740;BME280;54536;50.090;14.420;2023-04-07T08:07:34;99535.63;;;9.77;40.07
67740;BME280;54536;50.090;14.420;2023-04-07T08:10:00;99540.69;;;9.90;39.15
67740;BME280;54536;50.090;14.420;2023-04-07T08:12:26;99534.75;;;9.88;38.80
67740;BME280;54536;50.090;14.420;2023-04-07T08:14:53;99537.38;;;9.88;38.84
67740;BME280;54536;50.090;14.420;2023-04-07T08:17:19;99529.97;;;10.02;37.88
67740;BME280;54536;50.090;14.420;2023-04-07T08:19:45;99537.66;;;10.15;38.60
67740;BME280;54536;50.090;14.420;2023-04-07T08:22:14;99532.22;;;10.28;36.40
67740;BME280;54536;50.090;14.420;2023-04-07T08:24:40;99526.47;;;10.34;36.63
67740;BME280;54536;50.090;14.420;2023-04-07T08:27:06;99521.72;;;10.28;36.03
67740;BME280;54536;50.090;14.420;2023-04-07T08:29:32;99527.94;;;10.27;36.75
67740;BME280;54536;50.090;14.420;2023-04-07T08:31:58;99530.63;;;10.37;36.21
67740;BME280;54536;50.090;14.420;2023-04-07T08:34:25;99524.44;;;10.47;36.37
67740;BME280;54536;50.090;14.420;2023-04-07T08:36:51;99522.66;;;10.58;36.01
67740;BME280;54536;50.090;14.420;2023-04-07T08:39:17;99529.03;;;10.55;35.10
67740;BME280;54536;50.090;14.420;2023-04-07T08:41:46;99531.13;;;10.61;35.11
67740;BME280;54536;50.090;14.420;2023-04-07T08:44:14;99531.00;;;10.63;33.87
67740;BME280;54536;50.090;14.420;2023-04-07T08:46:40;99527.81;;;10.69;33.17
67740;BME280;54536;50.090;14.420;2023-04-07T08:49:09;99531.31;;;10.69;32.98
67740;BME280;54536;50.090;14.420;2023-04-07T08:51:37;99529.53;;;10.80;33.07
67740;BME280;54536;50.090;14.420;2023-04-07T08:54:13;99524.84;;;10.83;32.98
67740;BME280;54536;50.090;14.420;2023-04-07T08:56:41;99527.03;;;10.88;33.01
67740;BME280;54536;50.090;14.420;2023-04-07T08:59:13;99527.06;;;10.97;32.64
67740;BME280;54536;50.090;14.420;2023-04-07T09:01:40;99531.34;;;10.98;32.81
67740;BME280;54536;50.090;14.420;2023-04-07T09:04:09;99531.50;;;10.97;32.91
67740;BME280;54536;50.090;14.420;2023-04-07T09:06:37;99527.78;;;11.09;32.37
67740;BME280;54536;50.090;14.420;2023-04-07T09:09:04;99531.34;;;10.98;32.21
67740;BME280;54536;50.090;14.420;2023-04-07T09:11:39;99525.28;;;11.08;32.81
67740;BME280;54536;50.090;14.420;2023-04-07T09:14:06;99526.13;;;11.18;32.06
67740;BME280;54536;50.090;14.420;2023-04-07T09:16:32;99522.28;;;11.22;32.34
67740;BME280;54536;50.090;14.420;2023-04-07T09:18:58;99523.50;;;11.18;32.23
67740;BME280;54536;50.090;14.420;2023-04-07T09:21:24;99526.13;;;11.18;32.47
67740;BME280;54536;50.090;14.420;2023-04-07T09:23:52;99522.66;;;11.08;32.59
67740;BME280;54536;50.090;14.420;2023-04-07T09:28:56;99529.16;;;11.13;32.22
67740;BME280;54536;50.090;14.420;2023-04-07T09:31:43;99523.50;;;11.18;32.38
67740;BME280;54536;50.090;14.420;2023-04-07T09:34:38;99518.78;;;11.31;32.29
67740;BME280;54536;50.090;14.420;2023-04-07T09:37:06;99522.41;;;11.40;32.26
67740;BME280;54536;50.090;14.420;2023-04-07T09:39:49;99522.56;;;11.48;31.80
67740;BME280;54536;50.090;14.420;2023-04-07T09:42:16;99516.44;;;11.47;31.82
67740;BME280;54536;50.090;14.420;2023-04-07T09:44:43;99507.72;;;11.47;31.94
67740;BME280;54536;50.090;14.420;2023-04-07T09:47:09;99511.59;;;11.53;31.47
67740;BME280;54536;50.090;14.420;2023-04-07T09:49:53;99509.13;;;11.61;31.83
67740;BME280;54536;50.090;14.420;2023-04-07T09:52:51;99512.00;;;11.77;32.04
67740;BME280;54536;50.090;14.420;2023-04-07T09:55:22;99517.25;;;11.87;30.94
67740;BME280;54536;50.090;14.420;2023-04-07T09:57:50;99508.94;;;11.82;30.93
67740;BME280;54536;50.090;14.420;2023-04-07T10:00:19;99511.88;;;11.88;30.85
67740;BME280;54536;50.090;14.420;2023-04-07T10:02:47;99505.84;;;12.06;30.09
67740;BME280;54536;50.090;14.420;2023-04-07T10:05:16;99501.38;;;12.16;29.86
67740;BME280;54536;50.090;14.420;2023-04-07T10:07:43;99499.03;;;12.13;30.34
67740;BME280;54536;50.090;14.420;2023-04-07T10:10:10;99504.16;;;12.14;30.34
67740;BME280;54536;50.090;14.420;2023-04-07T10:12:37;99503.44;;;12.22;29.54
67740;BME280;54536;50.090;14.420;2023-04-07T10:15:05;99501.66;;;12.13;29.50
67740;BME280;54536;50.090;14.420;2023-04-07T10:17:32;99497.97;;;11.96;30.49
67740;BME280;54536;50.090;14.420;2023-04-07T10:20:00;99502.13;;;11.99;29.94
67740;BME280;54536;50.090;14.420;2023-04-07T10:22:28;99501.13;;;12.09;30.31
67740;BME280;54536;50.090;14.420;2023-04-07T10:25:08;99495.03;;;12.09;29.58
67740;BME280;54536;50.090;14.420;2023-04-07T10:27:47;99496.28;;;12.05;30.12
67740;BME280;54536;50.090;14.420;2023-04-07T10:30:24;99493.41;;;11.98;30.09
67740;BME280;54536;50.090;14.420;2023-04-07T10:32:52;99500.88;;;11.93;30.16
67740;BME280;54536;50.090;14.420;2023-04-07T10:35:20;99498.41;;;11.91;29.72
67740;BME280;54536;50.090;14.420;2023-04-07T10:38:09;99497.84;;;11.98;29.58
67740;BME280;54536;50.090;14.420;2023-04-07T10:40:37;99499.78;;;11.95;30.60
67740;BME280;54536;50.090;14.420;2023-04-07T10:43:04;99494.78;;;11.92;29.70
67740;BME280;54536;50.090;14.420;2023-04-07T10:48:18;99494.53;;;11.86;29.39
67740;BME280;54536;50.090;14.420;2023-04-07T10:53:30;99488.56;;;11.84;29.00
67740;BME280;54536;50.090;14.420;2023-04-07T10:55:57;99488.94;;;11.99;28.94
67740;BME280;54536;50.090;14.420;2023-04-07T11:03:27;99483.81;;;12.07;29.29
67740;BME280;54536;50.090;14.420;2023-04-07T11:06:04;99483.22;;;12.13;29.24
67740;BME280;54536;50.090;14.420;2023-04-07T11:08:36;99484.06;;;12.13;29.05
67740;BME280;54536;50.090;14.420;2023-04-07T11:11:04;99488.19;;;12.16;28.32
67740;BME280;54536;50.090;14.420;2023-04-07T11:13:45;99484.56;;;12.27;27.65
67740;BME280;54536;50.090;14.420;2023-04-07T11:16:13;99484.41;;;12.28;27.92
67740;BME280;54536;50.090;14.420;2023-04-07T11:18:41;99481.91;;;12.36;28.56
67740;BME280;54536;50.090;14.420;2023-04-07T11:21:09;99479.38;;;12.35;28.27
67740;BME280;54536;50.090;14.420;2023-04-07T11:23:42;99476.78;;;12.25;28.60
67740;BME280;54536;50.090;14.420;2023-04-07T11:26:11;99471.75;;;12.32;28.54
67740;BME280;54536;50.090;14.420;2023-04-07T11:28:48;99483.00;;;12.34;28.62
67740;BME280;54536;50.090;14.420;2023-04-07T11:31:24;99464.97;;;12.29;28.90
67740;BME280;54536;50.090;14.420;2023-04-07T11:34:01;99468.50;;;12.20;28.86
67740;BME280;54536;50.090;14.420;2023-04-07T11:36:40;99469.88;;;12.24;29.30
67740;BME280;54536;50.090;14.420;2023-04-07T11:39:18;99469.47;;;12.19;29.59
67740;BME280;54536;50.090;14.420;2023-04-07T11:41:49;99464.31;;;12.27;29.06
67740;BME280;54536;50.090;14.420;2023-04-07T11:44:15;99472.50;;;12.24;29.40
67740;BME280;54536;50.090;14.420;2023-04-07T11:49:22;99476.34;;;12.39;29.45
67740;BME280;54536;50.090;14.420;2023-04-07T11:52:00;99470.69;;;12.52;29.53
67740;BME280;54536;50.090;14.420;2023-04-07T11:54:48;99463.53;;;12.72;29.80
67740;BME280;54536;50.090;14.420;2023-04-07T11:57:28;99456.97;;;12.76;29.69
67740;BME280;54536;50.090;14.420;2023-04-07T12:00:10;99460.66;;;12.83;29.69
67740;BME280;54536;50.090;14.420;2023-04-07T12:02:37;99461.59;;;12.92;29.84
67740;BME280;54536;50.090;14.420;2023-04-07T12:05:05;99464.44;;;13.17;29.50
67740;BME280;54536;50.090;14.420;2023-04-07T12:07:31;99461.97;;;13.33;28.93
67740;BME280;54536;50.090;14.420;2023-04-07T12:10:17;99460.56;;;13.39;29.42
67740;BME280;54536;50.090;14.420;2023-04-07T12:12:45;99457.09;;;13.38;28.56
67740;BME280;54536;50.090;14.420;2023-04-07T12:15:11;99459.16;;;13.52;28.22
67740;BME280;54536;50.090;14.420;2023-04-07T12:17:44;99453.88;;;13.52;29.02
67740;BME280;54536;50.090;14.420;2023-04-07T12:20:12;99455.19;;;13.48;28.82
67740;BME280;54536;50.090;14.420;2023-04-07T12:22:40;99452.63;;;13.39;28.50
67740;BME280;54536;50.090;14.420;2023-04-07T12:25:06;99451.41;;;13.33;29.35
67740;BME280;54536;50.090;14.420;2023-04-07T12:27:33;99451.03;;;13.46;29.37
67740;BME280;54536;50.090;14.420;2023-04-07T12:29:59;99448.56;;;13.44;29.41
67740;BME280;54536;50.090;14.420;2023-04-07T12:32:25;99446.66;;;13.37;28.76
67740;BME280;54536;50.090;14.420;2023-04-07T12:34:51;99451.63;;;13.40;29.18
67740;BME280;54536;50.090;14.420;2023-04-07T12:37:17;99451.72;;;13.30;29.42
67740;BME280;54536;50.090;14.420;2023-04-07T12:39:43;99452.41;;;13.32;29.40
67740;BME280;54536;50.090;14.420;2023-04-07T12:42:09;99455.81;;;13.24;29.04
67740;BME280;54536;50.090;14.420;2023-04-07T12:44:37;99447.56;;;13.27;29.55
67740;BME280;54536;50.090;14.420;2023-04-07T12:47:03;99447.56;;;13.27;29.94
67740;BME280;54536;50.090;14.420;2023-04-07T12:49:29;99444.31;;;13.33;29.25
67740;BME280;54536;50.090;14.420;2023-04-07T12:51:56;99447.09;;;13.50;29.18
67740;BME280;54536;50.090;14.420;2023-04-07T12:54:22;99453.44;;;13.57;29.04
67740;BME280;54536;50.090;14.420;2023-04-07T12:56:49;99450.47;;;13.60;28.89
67740;BME280;54536;50.090;14.420;2023-04-07T12:59:22;99448.34;;;13.38;28.70
67740;BME280;54536;50.090;14.420;2023-04-07T13:01:49;99445.47;;;13.31;29.57
67740;BME280;54536;50.090;14.420;2023-04-07T13:04:15;99449.78;;;13.32;28.93
67740;BME280;54536;50.090;14.420;2023-04-07T13:06:42;99441.38;;;13.37;29.54
67740;BME280;54536;50.090;14.420;2023-04-07T13:09:08;99441.66;;;13.51;30.01
67740;BME280;54536;50.090;14.420;2023-04-07T13:11:35;99449.34;;;13.63;29.91
67740;BME280;54536;50.090;14.420;2023-04-07T13:14:01;99441.28;;;13.64;28.99
67740;BME280;54536;50.090;14.420;2023-04-07T13:16:27;99440.88;;;13.59;29.39
67740;BME280;54536;50.090;14.420;2023-04-07T13:18:54;99439.06;;;13.59;29.54
67740;BME280;54536;50.090;14.420;2023-04-07T13:21:31;99435.69;;;13.49;29.19